sensor_id;sensor_type;location;lat;lon;timestamp;temperature;humidity
38582;DHT22;24349;53.720;10.014;2024-02-14T00:00:13;6.80;99.90
38582;DHT22;24349;53.720;10.014;2024-02-14T00:02:45;6.70;99.90
38582;DHT22;24349;53.720;10.014;2024-02-14T00:05:14;6.70;99.90
38582;DHT22;24349;53.720;10.014;2024-02-14T00:07:40;6.70;99.90
38582;DHT22;24349;53.720;10.014;2024-02-14T00:10:06;6.70;99.90
38582;DHT22;24349;53.720;10.014;2024-02-14T00:12:35;6.70;99.90
38582;DHT22;24349;53.720;10.014;2024-02-14T00:15:03;6.60;99.90
38582;DHT22;24349;53.720;10.014;2024-02-14T00:17:29;6.60;99.90
38582;DHT22;24349;53.720;10.014;2024-02-14T00:19:55;6.60;99.90
38582;DHT22;24349;53.720;10.014;2024-02-14T00:22:21;6.50;99.90
38582;DHT22;24349;53.720;10.014;2024-02-14T00:24:46;6.40;99.90
38582;DHT22;24349;53.720;10.014;2024-02-14T00:27:12;6.40;99.90
38582;DHT22;24349;53.720;10.014;2024-02-14T00:29:40;6.30;99.90
38582;DHT22;24349;53.720;10.014;2024-02-14T00:32:05;6.30;99.90
38582;DHT22;24349;53.720;10.014;2024-02-14T00:34:31;6.20;99.90
38582;DHT22;24349;53.720;10.014;2024-02-14T00:36:56;6.10;99.90
38582;DHT22;24349;53.720;10.014;2024-02-14T00:39:22;6.10;99.90
38582;DHT22;24349;53.720;10.014;2024-02-14T00:41:48;6.00;99.90
38582;DHT22;24349;53.720;10.014;2024-02-14T00:44:14;5.90;99.90
38582;DHT22;24349;53.720;10.014;2024-02-14T00:46:44;5.90;99.90
38582;DHT22;24349;53.720;10.014;2024-02-14T00:49:10;5.80;99.90
38582;DHT22;24349;53.720;10.014;2024-02-14T00:51:36;5.80;99.90
38582;DHT22;24349;53.720;10.014;2024-02-14T00:54:04;5.70;99.90
38582;DHT22;24349;53.720;10.014;2024-02-14T00:56:29;5.70;99.90
38582;DHT22;24349;53.720;10.014;2024-02-14T00:58:55;5.70;99.90
38582;DHT22;24349;53.720;10.014;2024-02-14T01:01:22;5.70;99.90
38582;DHT22;24349;53.720;10.014;2024-02-14T01:03:47;5.80;99.90
38582;DHT22;24349;53.720;10.014;2024-02-14T01:06:15;5.80;99.90
38582;DHT22;24349;53.720;10.014;2024-02-14T01:08:41;5.80;99.90
38582;DHT22;24349;53.720;10.014;2024-02-14T01:11:07;5.80;99.90
38582;DHT22;24349;53.720;10.014;2024-02-14T01:13:33;5.80;99.90
38582;DHT22;24349;53.720;10.014;2024-02-14T01:15:59;5.80;99.90
38582;DHT22;24349;53.720;10.014;2024-02-14T01:18:25;5.80;99.90
38582;DHT22;24349;53.720;10.014;2024-02-14T01:20:50;5.80;99.90
38582;DHT22;24349;53.720;10.014;2024-02-14T01:23:16;5.80;99.90
38582;DHT22;24349;53.720;10.014;2024-02-14T01:25:42;5.80;99.90
38582;DHT22;24349;53.720;10.014;2024-02-14T01:28:10;5.90;99.90
38582;DHT22;24349;53.720;10.014;2024-02-14T01:30:35;5.90;99.90
38582;DHT22;24349;53.720;10.014;2024-02-14T01:33:02;5.90;99.90
38582;DHT22;24349;53.720;10.014;2024-02-14T01:35:29;5.90;99.90
38582;DHT22;24349;53.720;10.014;2024-02-14T01:37:55;5.90;99.90
38582;DHT22;24349;53.720;10.014;2024-02-14T01:40:20;5.90;99.90
38582;DHT22;24349;53.720;10.014;2024-02-14T01:42:46;5.90;99.90
38582;DHT22;24349;53.720;10.014;2024-02-14T01:45:12;5.90;99.90
38582;DHT22;24349;53.720;10.014;2024-02-14T01:47:38;5.80;99.90
38582;DHT22;24349;53.720;10.014;2024-02-14T01:50:07;5.90;99.90
38582;DHT22;24349;53.720;10.014;2024-02-14T01:52:37;5.80;99.90
38582;DHT22;24349;53.720;10.014;2024-02-14T01:55:05;5.80;1.00
38582;DHT22;24349;53.720;10.014;2024-02-14T01:57:31;5.70;99.90
38582;DHT22;24349;53.720;10.014;2024-02-14T01:59:59;5.80;1.00
38582;DHT22;24349;53.720;10.014;2024-02-14T02:02:28;5.80;59.10
38582;DHT22;24349;53.720;10.014;2024-02-14T02:04:53;5.80;99.90
38582;DHT22;24349;53.720;10.014;2024-02-14T02:07:19;5.70;5.70
38582;DHT22;24349;53.720;10.014;2024-02-14T02:09:46;5.70;1.00
38582;DHT22;24349;53.720;10.014;2024-02-14T02:12:11;5.70;16.60
38582;DHT22;24349;53.720;10.014;2024-02-14T02:14:37;5.60;99.90
38582;DHT22;24349;53.720;10.014;2024-02-14T02:17:03;5.60;99.90
38582;DHT22;24349;53.720;10.014;2024-02-14T02:19:33;5.60;1.00
38582;DHT22;24349;53.720;10.014;2024-02-14T02:22:00;5.60;55.20
38582;DHT22;24349;53.720;10.014;2024-02-14T02:24:25;5.60;99.90
38582;DHT22;24349;53.720;10.014;2024-02-14T02:26:51;5.60;99.90
38582;DHT22;24349;53.720;10.014;2024-02-14T02:29:16;5.60;99.90
38582;DHT22;24349;53.720;10.014;2024-02-14T02:31:42;5.50;99.90
38582;DHT22;24349;53.720;10.014;2024-02-14T02:34:08;5.50;1.00
38582;DHT22;24349;53.720;10.014;2024-02-14T02:36:36;5.40;1.00
38582;DHT22;24349;53.720;10.014;2024-02-14T02:39:03;5.40;1.00
38582;DHT22;24349;53.720;10.014;2024-02-14T02:41:30;5.40;17.50
38582;DHT22;24349;53.720;10.014;2024-02-14T02:43:57;5.40;37.80
38582;DHT22;24349;53.720;10.014;2024-02-14T02:46:23;5.50;76.80
38582;DHT22;24349;53.720;10.014;2024-02-14T02:48:48;5.40;99.90
38582;DHT22;24349;53.720;10.014;2024-02-14T02:51:17;5.40;99.90
38582;DHT22;24349;53.720;10.014;2024-02-14T02:53:43;5.30;99.90
38582;DHT22;24349;53.720;10.014;2024-02-14T02:56:09;5.30;99.90
38582;DHT22;24349;53.720;10.014;2024-02-14T02:58:34;5.30;99.90
38582;DHT22;24349;53.720;10.014;2024-02-14T03:01:00;5.30;99.90
38582;DHT22;24349;53.720;10.014;2024-02-14T03:03:26;5.30;99.90
38582;DHT22;24349;53.720;10.014;2024-02-14T03:05:53;5.30;99.90
38582;DHT22;24349;53.720;10.014;2024-02-14T03:08:20;5.20;99.90
38582;DHT22;24349;53.720;10.014;2024-02-14T03:10:47;5.20;99.90
38582;DHT22;24349;53.720;10.014;2024-02-14T03:13:12;5.30;99.90
38582;DHT22;24349;53.720;10.014;2024-02-14T03:15:42;5.20;99.90
38582;DHT22;24349;53.720;10.014;2024-02-14T03:18:09;5.20;99.90
38582;DHT22;24349;53.720;10.014;2024-02-14T03:20:35;5.30;99.90
38582;DHT22;24349;53.720;10.014;2024-02-14T03:23:02;5.30;99.90
38582;DHT22;24349;53.720;10.014;2024-02-14T03:25:29;5.20;99.90
38582;DHT22;24349;53.720;10.014;2024-02-14T03:27:55;5.20;99.90
38582;DHT22;24349;53.720;10.014;2024-02-14T03:30:22;5.10;99.90
38582;DHT22;24349;53.720;10.014;2024-02-14T03:32:48;5.20;99.90
38582;DHT22;24349;53.720;10.014;2024-02-14T03:35:14;5.10;99.90
38582;DHT22;24349;53.720;10.014;2024-02-14T03:37:41;5.10;99.90
38582;DHT22;24349;53.720;10.014;2024-02-14T03:40:07;5.10;99.90
38582;DHT22;24349;53.720;10.014;2024-02-14T03:42:36;5.20;99.90
38582;DHT22;24349;53.720;10.014;2024-02-14T03:45:06;5.10;99.90
38582;DHT22;24349;53.720;10.014;2024-02-14T03:47:32;5.10;99.90
38582;DHT22;24349;53.720;10.014;2024-02-14T03:49:58;5.10;99.90
38582;DHT22;24349;53.720;10.014;2024-02-14T03:52:24;5.00;99.90
38582;DHT22;24349;53.720;10.014;2024-02-14T03:54:50;4.90;99.90
38582;DHT22;24349;53.720;10.014;2024-02-14T03:57:16;5.00;99.90
38582;DHT22;24349;53.720;10.014;2024-02-14T03:59:43;5.00;99.90
38582;DHT22;24349;53.720;10.014;2024-02-14T04:02:09;5.00;99.90
38582;DHT22;24349;53.720;10.014;2024-02-14T04:04:36;5.00;99.90
38582;DHT22;24349;53.720;10.014;2024-02-14T04:07:03;5.00;99.90
38582;DHT22;24349;53.720;10.014;2024-02-14T04:09:28;5.10;99.90
38582;DHT22;24349;53.720;10.014;2024-02-14T04:11:54;5.10;99.90
38582;DHT22;24349;53.720;10.014;2024-02-14T04:14:20;5.10;99.90
38582;DHT22;24349;53.720;10.014;2024-02-14T04:16:46;5.10;99.90
38582;DHT22;24349;53.720;10.014;2024-02-14T04:19:12;5.00;99.90
38582;DHT22;24349;53.720;10.014;2024-02-14T04:21:38;5.00;99.90
38582;DHT22;24349;53.720;10.014;2024-02-14T04:24:04;5.00;99.90
38582;DHT22;24349;53.720;10.014;2024-02-14T04:26:30;5.10;99.90
38582;DHT22;24349;53.720;10.014;2024-02-14T04:28:55;5.10;99.90
38582;DHT22;24349;53.720;10.014;2024-02-14T04:31:22;5.10;99.90
38582;DHT22;24349;53.720;10.014;2024-02-14T04:33:49;5.10;99.90
38582;DHT22;24349;53.720;10.014;2024-02-14T04:36:19;5.10;99.90
38582;DHT22;24349;53.720;10.014;2024-02-14T04:38:47;5.20;99.90
38582;DHT22;24349;53.720;10.014;2024-02-14T04:41:13;5.10;99.90
38582;DHT22;24349;53.720;10.014;2024-02-14T04:43:40;5.10;99.90
38582;DHT22;24349;53.720;10.014;2024-02-14T04:46:05;5.10;99.90
38582;DHT22;24349;53.720;10.014;2024-02-14T04:48:36;5.10;99.90
38582;DHT22;24349;53.720;10.014;2024-02-14T04:51:04;5.10;99.90
38582;DHT22;24349;53.720;10.014;2024-02-14T04:53:32;5.10;99.90
38582;DHT22;24349;53.720;10.014;2024-02-14T04:55:58;5.10;99.90
38582;DHT22;24349;53.720;10.014;2024-02-14T04:58:24;5.10;99.90
38582;DHT22;24349;53.720;10.014;2024-02-14T05:00:51;5.10;99.90
38582;DHT22;24349;53.720;10.014;2024-02-14T05:03:17;5.10;99.90
38582;DHT22;24349;53.720;10.014;2024-02-14T05:05:43;5.10;99.90
38582;DHT22;24349;53.720;10.014;2024-02-14T05:08:08;5.20;99.90
38582;DHT22;24349;53.720;10.014;2024-02-14T05:10:34;5.20;99.90
38582;DHT22;24349;53.720;10.014;2024-02-14T05:12:59;5.20;99.90
38582;DHT22;24349;53.720;10.014;2024-02-14T05:15:26;5.30;99.90
38582;DHT22;24349;53.720;10.014;2024-02-14T05:17:52;5.20;99.90
38582;DHT22;24349;53.720;10.014;2024-02-14T05:20:17;5.20;99.90
38582;DHT22;24349;53.720;10.014;2024-02-14T05:22:43;5.20;99.90
38582;DHT22;24349;53.720;10.014;2024-02-14T05:25:09;5.20;99.90
38582;DHT22;24349;53.720;10.014;2024-02-14T05:27:36;5.20;99.90
38582;DHT22;24349;53.720;10.014;2024-02-14T05:30:02;5.20;99.90
38582;DHT22;24349;53.720;10.014;2024-02-14T05:32:31;5.30;99.90
38582;DHT22;24349;53.720;10.014;2024-02-14T05:34:57;5.30;99.90
38582;DHT22;24349;53.720;10.014;2024-02-14T05:37:23;5.30;99.90
38582;DHT22;24349;53.720;10.014;2024-02-14T05:39:48;5.30;99.90
38582;DHT22;24349;53.720;10.014;2024-02-14T05:42:14;5.30;99.90
38582;DHT22;24349;53.720;10.014;2024-02-14T05:44:42;5.40;99.90
38582;DHT22;24349;53.720;10.014;2024-02-14T05:47:08;5.40;99.90
38582;DHT22;24349;53.720;10.014;2024-02-14T05:49:34;5.40;99.90
38582;DHT22;24349;53.720;10.014;2024-02-14T05:52:00;5.40;99.90
38582;DHT22;24349;53.720;10.014;2024-02-14T05:54:25;5.50;99.90
38582;DHT22;24349;53.720;10.014;2024-02-14T05:56:51;5.40;99.90
38582;DHT22;24349;53.720;10.014;2024-02-14T05:59:17;5.60;99.90
38582;DHT22;24349;53.720;10.014;2024-02-14T06:01:42;5.40;99.90
38582;DHT22;24349;53.720;10.014;2024-02-14T06:04:08;5.40;99.90
38582;DHT22;24349;53.720;10.014;2024-02-14T06:06:34;5.40;99.90
38582;DHT22;24349;53.720;10.014;2024-02-14T06:08:59;5.50;99.90
38582;DHT22;24349;53.720;10.014;2024-02-14T06:11:25;5.50;99.90
38582;DHT22;24349;53.720;10.014;2024-02-14T06:13:50;5.50;99.90
38582;DHT22;24349;53.720;10.014;2024-02-14T06:16:16;5.50;99.90
38582;DHT22;24349;53.720;10.014;2024-02-14T06:18:42;5.50;99.90
38582;DHT22;24349;53.720;10.014;2024-02-14T06:21:07;5.40;99.90
38582;DHT22;24349;53.720;10.014;2024-02-14T06:23:34;5.50;99.90
38582;DHT22;24349;53.720;10.014;2024-02-14T06:26:00;5.50;99.90
38582;DHT22;24349;53.720;10.014;2024-02-14T06:28:25;5.50;99.90
38582;DHT22;24349;53.720;10.014;2024-02-14T06:30:51;5.50;99.90
38582;DHT22;24349;53.720;10.014;2024-02-14T06:33:16;5.60;99.90
38582;DHT22;24349;53.720;10.014;2024-02-14T06:35:42;5.50;99.90
38582;DHT22;24349;53.720;10.014;2024-02-14T06:38:08;5.60;99.90
38582;DHT22;24349;53.720;10.014;2024-02-14T06:40:33;5.60;99.90
38582;DHT22;24349;53.720;10.014;2024-02-14T06:42:59;5.70;99.90
38582;DHT22;24349;53.720;10.014;2024-02-14T06:45:26;5.70;99.90
38582;DHT22;24349;53.720;10.014;2024-02-14T06:47:53;5.60;99.90
38582;DHT22;24349;53.720;10.014;2024-02-14T06:50:18;5.60;99.90
38582;DHT22;24349;53.720;10.014;2024-02-14T06:52:44;5.70;99.90
38582;DHT22;24349;53.720;10.014;2024-02-14T06:55:09;5.70;99.90
38582;DHT22;24349;53.720;10.014;2024-02-14T06:57:35;5.70;99.90
38582;DHT22;24349;53.720;10.014;2024-02-14T07:00:01;5.80;99.90
38582;DHT22;24349;53.720;10.014;2024-02-14T07:02:30;5.80;99.90
38582;DHT22;24349;53.720;10.014;2024-02-14T07:04:56;5.70;99.90
38582;DHT22;24349;53.720;10.014;2024-02-14T07:07:21;5.70;99.90
38582;DHT22;24349;53.720;10.014;2024-02-14T07:09:47;5.80;99.90
38582;DHT22;24349;53.720;10.014;2024-02-14T07:12:13;5.80;99.90
38582;DHT22;24349;53.720;10.014;2024-02-14T07:14:38;5.90;99.90
38582;DHT22;24349;53.720;10.014;2024-02-14T07:17:04;5.90;99.90
38582;DHT22;24349;53.720;10.014;2024-02-14T07:19:29;5.80;99.90
38582;DHT22;24349;53.720;10.014;2024-02-14T07:21:55;5.80;99.90
38582;DHT22;24349;53.720;10.014;2024-02-14T07:24:20;5.90;99.90
38582;DHT22;24349;53.720;10.014;2024-02-14T07:26:46;5.90;99.90
38582;DHT22;24349;53.720;10.014;2024-02-14T07:29:12;5.90;99.90
38582;DHT22;24349;53.720;10.014;2024-02-14T07:31:37;5.90;99.90
38582;DHT22;24349;53.720;10.014;2024-02-14T07:34:03;5.90;99.90
38582;DHT22;24349;53.720;10.014;2024-02-14T07:36:32;5.90;99.90
38582;DHT22;24349;53.720;10.014;2024-02-14T07:38:57;6.00;99.90
38582;DHT22;24349;53.720;10.014;2024-02-14T07:41:23;6.00;99.90
38582;DHT22;24349;53.720;10.014;2024-02-14T07:43:49;6.00;99.90
38582;DHT22;24349;53.720;10.014;2024-02-14T07:46:19;6.00;99.90
38582;DHT22;24349;53.720;10.014;2024-02-14T07:48:45;6.10;99.90
38582;DHT22;24349;53.720;10.014;2024-02-14T07:51:11;6.10;99.90
38582;DHT22;24349;53.720;10.014;2024-02-14T07:53:37;6.10;99.90
38582;DHT22;24349;53.720;10.014;2024-02-14T07:56:02;6.10;99.90
38582;DHT22;24349;53.720;10.014;2024-02-14T07:58:28;6.10;99.90
38582;DHT22;24349;53.720;10.014;2024-02-14T08:00:54;6.10;99.90
38582;DHT22;24349;53.720;10.014;2024-02-14T08:03:19;6.20;99.90
38582;DHT22;24349;53.720;10.014;2024-02-14T08:05:45;6.20;99.90
38582;DHT22;24349;53.720;10.014;2024-02-14T08:08:10;6.30;99.90
38582;DHT22;24349;53.720;10.014;2024-02-14T08:10:36;6.20;99.90
38582;DHT22;24349;53.720;10.014;2024-02-14T08:13:01;6.20;99.90
38582;DHT22;24349;53.720;10.014;2024-02-14T08:15:29;6.30;99.90
38582;DHT22;24349;53.720;10.014;2024-02-14T08:17:55;6.30;99.90
38582;DHT22;24349;53.720;10.014;2024-02-14T08:20:22;6.40;99.90
38582;DHT22;24349;53.720;10.014;2024-02-14T08:22:48;6.40;99.90
38582;DHT22;24349;53.720;10.014;2024-02-14T08:25:14;6.40;99.90
38582;DHT22;24349;53.720;10.014;2024-02-14T08:27:40;6.40;99.90
38582;DHT22;24349;53.720;10.014;2024-02-14T08:30:06;6.50;99.90
38582;DHT22;24349;53.720;10.014;2024-02-14T08:32:33;6.50;99.90
38582;DHT22;24349;53.720;10.014;2024-02-14T08:34:58;6.50;99.90
38582;DHT22;24349;53.720;10.014;2024-02-14T08:37:24;6.50;99.90
38582;DHT22;24349;53.720;10.014;2024-02-14T08:39:50;6.50;99.90
38582;DHT22;24349;53.720;10.014;2024-02-14T08:42:16;6.50;99.90
38582;DHT22;24349;53.720;10.014;2024-02-14T08:44:41;6.60;99.90
38582;DHT22;24349;53.720;10.014;2024-02-14T08:47:07;6.70;99.90
38582;DHT22;24349;53.720;10.014;2024-02-14T08:49:33;6.70;99.90
38582;DHT22;24349;53.720;10.014;2024-02-14T08:51:59;6.80;99.90
38582;DHT22;24349;53.720;10.014;2024-02-14T08:54:24;6.80;99.90
38582;DHT22;24349;53.720;10.014;2024-02-14T08:56:50;6.80;99.90
38582;DHT22;24349;53.720;10.014;2024-02-14T08:59:20;6.90;99.90
38582;DHT22;24349;53.720;10.014;2024-02-14T09:01:46;6.90;99.90
38582;DHT22;24349;53.720;10.014;2024-02-14T09:04:12;7.00;99.90
38582;DHT22;24349;53.720;10.014;2024-02-14T09:06:37;7.00;99.90
38582;DHT22;24349;53.720;10.014;2024-02-14T09:09:06;7.00;99.90
38582;DHT22;24349;53.720;10.014;2024-02-14T09:11:32;7.00;99.90
38582;DHT22;24349;53.720;10.014;2024-02-14T09:13:57;7.10;99.90
38582;DHT22;24349;53.720;10.014;2024-02-14T09:16:30;7.10;99.90
38582;DHT22;24349;53.720;10.014;2024-02-14T09:18:55;7.20;99.90
38582;DHT22;24349;53.720;10.014;2024-02-14T09:21:21;7.30;99.90
38582;DHT22;24349;53.720;10.014;2024-02-14T09:23:47;7.30;99.90
38582;DHT22;24349;53.720;10.014;2024-02-14T09:26:13;7.30;99.90
38582;DHT22;24349;53.720;10.014;2024-02-14T09:28:42;7.30;99.90
38582;DHT22;24349;53.720;10.014;2024-02-14T09:31:07;7.40;99.90
38582;DHT22;24349;53.720;10.014;2024-02-14T09:33:35;7.40;99.90
38582;DHT22;24349;53.720;10.014;2024-02-14T09:36:02;7.50;99.90
38582;DHT22;24349;53.720;10.014;2024-02-14T09:38:29;7.40;99.90
38582;DHT22;24349;53.720;10.014;2024-02-14T09:41:00;7.50;99.90
38582;DHT22;24349;53.720;10.014;2024-02-14T09:43:38;7.50;99.90
38582;DHT22;24349;53.720;10.014;2024-02-14T09:46:07;7.60;99.90
38582;DHT22;24349;53.720;10.014;2024-02-14T09:48:33;7.70;99.90
38582;DHT22;24349;53.720;10.014;2024-02-14T09:50:59;7.70;99.90
38582;DHT22;24349;53.720;10.014;2024-02-14T09:53:26;7.80;99.90
38582;DHT22;24349;53.720;10.014;2024-02-14T09:55:54;7.90;99.90
38582;DHT22;24349;53.720;10.014;2024-02-14T09:58:20;8.00;99.90
38582;DHT22;24349;53.720;10.014;2024-02-14T10:00:46;8.00;99.90
38582;DHT22;24349;53.720;10.014;2024-02-14T10:03:12;8.00;99.90
38582;DHT22;24349;53.720;10.014;2024-02-14T10:05:38;8.10;99.90
38582;DHT22;24349;53.720;10.014;2024-02-14T10:08:04;8.20;99.90
38582;DHT22;24349;53.720;10.014;2024-02-14T10:10:32;8.20;99.90
38582;DHT22;24349;53.720;10.014;2024-02-14T10:13:00;8.30;99.90
38582;DHT22;24349;53.720;10.014;2024-02-14T10:15:26;8.30;99.90
38582;DHT22;24349;53.720;10.014;2024-02-14T10:17:52;8.30;99.90
38582;DHT22;24349;53.720;10.014;2024-02-14T10:20:18;8.40;99.90
38582;DHT22;24349;53.720;10.014;2024-02-14T10:22:43;8.40;99.90
38582;DHT22;24349;53.720;10.014;2024-02-14T10:25:10;8.50;99.90
38582;DHT22;24349;53.720;10.014;2024-02-14T10:27:39;8.60;99.90
38582;DHT22;24349;53.720;10.014;2024-02-14T10:30:09;8.60;99.90
38582;DHT22;24349;53.720;10.014;2024-02-14T10:32:35;8.70;99.90
38582;DHT22;24349;53.720;10.014;2024-02-14T10:35:04;8.70;99.90
38582;DHT22;24349;53.720;10.014;2024-02-14T10:37:34;8.80;99.90
38582;DHT22;24349;53.720;10.014;2024-02-14T10:40:01;8.90;99.90
38582;DHT22;24349;53.720;10.014;2024-02-14T10:42:28;8.90;99.90
38582;DHT22;24349;53.720;10.014;2024-02-14T10:44:54;9.00;99.90
38582;DHT22;24349;53.720;10.014;2024-02-14T10:47:20;9.00;99.90
38582;DHT22;24349;53.720;10.014;2024-02-14T10:49:50;9.10;99.90
38582;DHT22;24349;53.720;10.014;2024-02-14T10:52:19;9.10;99.90
38582;DHT22;24349;53.720;10.014;2024-02-14T10:54:54;9.10;99.90
38582;DHT22;24349;53.720;10.014;2024-02-14T10:57:26;9.20;99.90
38582;DHT22;24349;53.720;10.014;2024-02-14T10:59:53;9.20;99.90
38582;DHT22;24349;53.720;10.014;2024-02-14T11:02:20;9.30;99.90
38582;DHT22;24349;53.720;10.014;2024-02-14T11:04:46;9.30;99.90
38582;DHT22;24349;53.720;10.014;2024-02-14T11:07:12;9.40;99.90
38582;DHT22;24349;53.720;10.014;2024-02-14T11:09:38;9.40;99.90
38582;DHT22;24349;53.720;10.014;2024-02-14T11:12:08;9.40;99.90
38582;DHT22;24349;53.720;10.014;2024-02-14T11:14:42;9.50;99.90
38582;DHT22;24349;53.720;10.014;2024-02-14T11:17:14;9.60;99.90
38582;DHT22;24349;53.720;10.014;2024-02-14T11:19:39;9.60;99.90
38582;DHT22;24349;53.720;10.014;2024-02-14T11:22:13;9.60;99.90
38582;DHT22;24349;53.720;10.014;2024-02-14T11:24:45;9.60;99.90
38582;DHT22;24349;53.720;10.014;2024-02-14T11:27:11;9.60;99.90
38582;DHT22;24349;53.720;10.014;2024-02-14T11:29:50;9.60;99.90
38582;DHT22;24349;53.720;10.014;2024-02-14T11:32:17;9.70;99.90
38582;DHT22;24349;53.720;10.014;2024-02-14T11:34:43;9.70;99.90
38582;DHT22;24349;53.720;10.014;2024-02-14T11:37:09;9.60;99.90
38582;DHT22;24349;53.720;10.014;2024-02-14T11:39:35;9.70;99.90
38582;DHT22;24349;53.720;10.014;2024-02-14T11:42:00;9.70;99.90
38582;DHT22;24349;53.720;10.014;2024-02-14T11:44:27;9.80;99.90
38582;DHT22;24349;53.720;10.014;2024-02-14T11:46:52;9.80;99.90
38582;DHT22;24349;53.720;10.014;2024-02-14T11:49:18;9.80;99.90
38582;DHT22;24349;53.720;10.014;2024-02-14T11:51:44;9.80;99.90
38582;DHT22;24349;53.720;10.014;2024-02-14T11:54:09;9.90;99.90
38582;DHT22;24349;53.720;10.014;2024-02-14T11:56:39;9.90;99.90
38582;DHT22;24349;53.720;10.014;2024-02-14T11:59:08;9.90;99.90
38582;DHT22;24349;53.720;10.014;2024-02-14T12:01:36;10.00;99.90
38582;DHT22;24349;53.720;10.014;2024-02-14T12:04:06;10.00;99.90
38582;DHT22;24349;53.720;10.014;2024-02-14T12:06:34;10.00;99.90
38582;DHT22;24349;53.720;10.014;2024-02-14T12:09:04;10.00;99.90
38582;DHT22;24349;53.720;10.014;2024-02-14T12:11:36;10.00;99.90
38582;DHT22;24349;53.720;10.014;2024-02-14T12:14:08;10.10;99.90
38582;DHT22;24349;53.720;10.014;2024-02-14T12:16:35;10.10;99.90
38582;DHT22;24349;53.720;10.014;2024-02-14T12:19:14;10.10;99.90
38582;DHT22;24349;53.720;10.014;2024-02-14T12:21:44;10.10;99.90
38582;DHT22;24349;53.720;10.014;2024-02-14T12:24:11;10.20;99.90
38582;DHT22;24349;53.720;10.014;2024-02-14T12:26:38;10.20;99.90
38582;DHT22;24349;53.720;10.014;2024-02-14T12:29:04;10.20;99.90
38582;DHT22;24349;53.720;10.014;2024-02-14T12:31:31;10.20;99.90
38582;DHT22;24349;53.720;10.014;2024-02-14T12:33:58;10.30;99.90
38582;DHT22;24349;53.720;10.014;2024-02-14T12:36:26;10.30;99.90
38582;DHT22;24349;53.720;10.014;2024-02-14T12:38:56;10.40;99.90
38582;DHT22;24349;53.720;10.014;2024-02-14T12:41:22;10.40;99.90
38582;DHT22;24349;53.720;10.014;2024-02-14T12:43:52;10.40;99.90
38582;DHT22;24349;53.720;10.014;2024-02-14T12:46:19;10.50;99.90
38582;DHT22;24349;53.720;10.014;2024-02-14T12:48:44;10.50;99.90
38582;DHT22;24349;53.720;10.014;2024-02-14T12:51:10;10.50;99.90
38582;DHT22;24349;53.720;10.014;2024-02-14T12:53:36;10.60;99.90
38582;DHT22;24349;53.720;10.014;2024-02-14T12:56:02;10.60;99.90
38582;DHT22;24349;53.720;10.014;2024-02-14T12:58:31;10.60;99.90
38582;DHT22;24349;53.720;10.014;2024-02-14T13:00:57;10.70;99.90
38582;DHT22;24349;53.720;10.014;2024-02-14T13:03:24;10.70;99.90
38582;DHT22;24349;53.720;10.014;2024-02-14T13:05:50;10.70;99.90
38582;DHT22;24349;53.720;10.014;2024-02-14T13:08:16;10.70;99.90
38582;DHT22;24349;53.720;10.014;2024-02-14T13:10:43;10.70;99.90
38582;DHT22;24349;53.720;10.014;2024-02-14T13:13:09;10.70;99.90
38582;DHT22;24349;53.720;10.014;2024-02-14T13:15:34;10.80;99.90
38582;DHT22;24349;53.720;10.014;2024-02-14T13:18:01;10.80;99.90
38582;DHT22;24349;53.720;10.014;2024-02-14T13:20:28;10.80;99.90
38582;DHT22;24349;53.720;10.014;2024-02-14T13:22:54;10.80;99.90
38582;DHT22;24349;53.720;10.014;2024-02-14T13:25:20;10.80;99.90
38582;DHT22;24349;53.720;10.014;2024-02-14T13:27:45;10.80;99.90
38582;DHT22;24349;53.720;10.014;2024-02-14T13:30:11;10.80;99.90
38582;DHT22;24349;53.720;10.014;2024-02-14T13:32:37;10.90;99.90
38582;DHT22;24349;53.720;10.014;2024-02-14T13:35:03;10.90;99.90
38582;DHT22;24349;53.720;10.014;2024-02-14T13:37:31;10.90;99.90
38582;DHT22;24349;53.720;10.014;2024-02-14T13:39:57;11.00;99.90
38582;DHT22;24349;53.720;10.014;2024-02-14T13:42:23;11.00;99.90
38582;DHT22;24349;53.720;10.014;2024-02-14T13:44:48;11.00;99.90
38582;DHT22;24349;53.720;10.014;2024-02-14T13:47:17;11.00;99.90
38582;DHT22;24349;53.720;10.014;2024-02-14T13:49:44;11.00;99.90
38582;DHT22;24349;53.720;10.014;2024-02-14T13:52:10;11.00;99.90
38582;DHT22;24349;53.720;10.014;2024-02-14T13:54:35;11.00;99.90
38582;DHT22;24349;53.720;10.014;2024-02-14T13:57:01;11.00;99.90
38582;DHT22;24349;53.720;10.014;2024-02-14T13:59:28;11.00;99.90
38582;DHT22;24349;53.720;10.014;2024-02-14T14:01:54;11.00;99.90
38582;DHT22;24349;53.720;10.014;2024-02-14T14:04:20;11.00;99.90
38582;DHT22;24349;53.720;10.014;2024-02-14T14:06:46;11.00;99.90
38582;DHT22;24349;53.720;10.014;2024-02-14T14:09:13;11.00;99.90
38582;DHT22;24349;53.720;10.014;2024-02-14T14:11:38;11.00;99.90
38582;DHT22;24349;53.720;10.014;2024-02-14T14:14:04;11.10;99.90
38582;DHT22;24349;53.720;10.014;2024-02-14T14:16:31;11.10;99.90
38582;DHT22;24349;53.720;10.014;2024-02-14T14:18:58;11.00;99.90
38582;DHT22;24349;53.720;10.014;2024-02-14T14:21:24;11.00;99.90
38582;DHT22;24349;53.720;10.014;2024-02-14T14:23:50;11.00;99.90
38582;DHT22;24349;53.720;10.014;2024-02-14T14:26:15;11.10;99.90
38582;DHT22;24349;53.720;10.014;2024-02-14T14:28:41;11.10;99.90
38582;DHT22;24349;53.720;10.014;2024-02-14T14:31:08;11.10;99.90
38582;DHT22;24349;53.720;10.014;2024-02-14T14:33:37;11.10;99.90
38582;DHT22;24349;53.720;10.014;2024-02-14T14:36:06;11.10;99.90
38582;DHT22;24349;53.720;10.014;2024-02-14T14:38:32;11.10;99.90
38582;DHT22;24349;53.720;10.014;2024-02-14T14:40:57;11.20;99.90
38582;DHT22;24349;53.720;10.014;2024-02-14T14:43:24;11.10;99.90
38582;DHT22;24349;53.720;10.014;2024-02-14T14:45:50;11.10;99.90
38582;DHT22;24349;53.720;10.014;2024-02-14T14:48:17;11.10;99.90
38582;DHT22;24349;53.720;10.014;2024-02-14T14:50:43;11.10;99.90
38582;DHT22;24349;53.720;10.014;2024-02-14T14:53:09;11.10;99.90
38582;DHT22;24349;53.720;10.014;2024-02-14T14:55:54;11.10;99.90
38582;DHT22;24349;53.720;10.014;2024-02-14T14:58:21;11.10;99.90
38582;DHT22;24349;53.720;10.014;2024-02-14T15:00:48;11.10;99.90
38582;DHT22;24349;53.720;10.014;2024-02-14T15:03:14;11.10;99.90
38582;DHT22;24349;53.720;10.014;2024-02-14T15:05:39;11.10;99.90
38582;DHT22;24349;53.720;10.014;2024-02-14T15:08:06;11.20;99.90
38582;DHT22;24349;53.720;10.014;2024-02-14T15:10:33;11.20;99.90
38582;DHT22;24349;53.720;10.014;2024-02-14T15:13:00;11.20;99.90
38582;DHT22;24349;53.720;10.014;2024-02-14T15:15:25;11.10;99.90
38582;DHT22;24349;53.720;10.014;2024-02-14T15:17:51;11.10;99.90
38582;DHT22;24349;53.720;10.014;2024-02-14T15:20:17;11.10;99.90
38582;DHT22;24349;53.720;10.014;2024-02-14T15:22:42;11.10;99.90